Time;durP1;ratioP1;P1;durP2;ratioP2;P2;SDS_P1;SDS_P2;PMS_P1;PMS_P2;Temp;Humidity;BMP_temperature;BMP_pressure;BME280_temperature;BME280_humidity;BME280_pressure;Samples;Min_cycle;Max_cycle;Signal;HPM_P1;HPM_P2
2021/03/09 00:00:16;;;;;;;20.73;11.55;;;;;;;-139.48;100.00;61774.03;5018811;28;20139;-66
2021/03/09 00:02:59;;;;;;;18.33;10.63;;;;;;;-139.48;100.00;61774.03;5005008;28;20517;-66
2021/03/09 00:05:44;;;;;;;20.63;10.52;;;;;;;-139.48;100.00;61774.03;5033762;28;20403;-66
2021/03/09 00:08:28;;;;;;;19.08;11.10;;;;;;;-139.48;100.00;61774.03;5004977;28;20132;-66
2021/03/09 00:11:12;;;;;;;17.90;9.90;;;;;;;-139.48;100.00;61774.03;5018561;28;20048;-66
2021/03/09 00:13:56;;;;;;;18.35;10.07;;;;;;;-139.48;100.00;61774.03;5033768;28;20107;-66
2021/03/09 00:16:40;;;;;;;20.20;9.65;;;;;;;-139.48;100.00;61774.03;5033366;28;20470;-66
2021/03/09 00:19:24;;;;;;;18.52;10.10;;;;;;;-139.48;100.00;61774.03;5033516;28;20045;-67
2021/03/09 00:22:09;;;;;;;19.95;10.13;;;;;;;-139.48;100.00;61774.03;5018299;28;20102;-66
2021/03/09 00:24:53;;;;;;;20.10;10.18;;;;;;;-139.48;100.00;61774.03;5018170;28;20045;-67
2021/03/09 00:27:38;;;;;;;18.13;9.82;;;;;;;-139.48;100.00;61774.03;5033418;28;20048;-67
2021/03/09 00:30:21;;;;;;;17.23;10.32;;;;;;;-139.48;100.00;61774.03;5004387;28;20055;-64
2021/03/09 00:33:06;;;;;;;25.63;12.27;;;;;;;-139.48;100.00;61774.03;5018341;28;20450;-66
2021/03/09 00:35:50;;;;;;;18.63;9.93;;;;;;;-139.48;100.00;61774.03;5018270;28;20048;-65
2021/03/09 00:38:33;;;;;;;18.60;9.77;;;;;;;-139.48;100.00;61774.03;5004155;28;20053;-67
2021/03/09 00:41:18;;;;;;;21.05;10.15;;;;;;;-139.48;100.00;61774.03;5017918;28;20124;-66
2021/03/09 00:44:02;;;;;;;20.20;11.07;;;;;;;-139.48;100.00;61774.03;5018111;28;20049;-66
2021/03/09 00:46:48;;;;;;;19.60;10.45;;;;;;;-139.48;100.00;61774.03;5032881;28;20566;-67
2021/03/09 00:49:34;;;;;;;19.08;11.18;;;;;;;-139.48;100.00;61774.03;5017813;28;20053;-67
2021/03/09 00:52:18;;;;;;;17.88;10.18;;;;;;;-139.48;100.00;61774.03;5017898;28;20060;-65
2021/03/09 00:55:02;;;;;;;20.20;10.60;;;;;;;-139.48;100.00;61774.03;5004131;28;20131;-67
2021/03/09 00:57:59;;;;;;;21.55;11.00;;;;;;;-139.48;100.00;61774.03;5032967;28;20052;-66
2021/03/09 01:00:44;;;;;;;22.25;10.30;;;;;;;-139.48;100.00;61774.03;5032740;28;20064;-66
2021/03/09 01:03:28;;;;;;;16.60;10.25;;;;;;;-139.48;100.00;61774.03;5032639;28;20544;-66
2021/03/09 01:06:12;;;;;;;19.48;10.82;;;;;;;-139.48;100.00;61774.03;5032984;28;20051;-67
2021/03/09 01:08:57;;;;;;;17.58;10.00;;;;;;;-139.48;100.00;61774.03;5032816;28;20430;-67
2021/03/09 01:11:41;;;;;;;18.85;10.45;;;;;;;-139.48;100.00;61774.03;5017987;28;20505;-66
2021/03/09 01:14:27;;;;;;;20.80;10.35;;;;;;;-139.48;100.00;61774.03;5033243;28;20044;-66
2021/03/09 01:17:10;;;;;;;21.42;10.90;;;;;;;-139.48;100.00;61774.03;5032749;28;20159;-65
2021/03/09 01:19:54;;;;;;;19.95;11.18;;;;;;;-139.48;100.00;61774.03;5004243;28;20060;-66
2021/03/09 01:22:39;;;;;;;20.77;10.82;;;;;;;-139.48;100.00;61774.03;5018269;28;20513;-66
2021/03/09 01:25:22;;;;;;;17.42;10.38;;;;;;;-139.48;100.00;61774.03;5017531;28;20040;-66
2021/03/09 01:28:07;;;;;;;18.42;10.57;;;;;;;-139.48;100.00;61774.03;5018026;28;20108;-64
2021/03/09 01:30:51;;;;;;;20.90;10.07;;;;;;;-139.48;100.00;61774.03;5017694;28;20088;-67
2021/03/09 01:33:35;;;;;;;20.35;10.10;;;;;;;-139.48;100.00;61774.03;5032595;28;20145;-66
2021/03/09 01:36:19;;;;;;;18.20;11.00;;;;;;;-139.48;100.00;61774.03;5032359;28;20132;-66
2021/03/09 01:39:03;;;;;;;18.58;10.38;;;;;;;-139.48;100.00;61774.03;5017638;28;20188;-66
2021/03/09 01:41:48;;;;;;;21.10;11.38;;;;;;;-139.48;100.00;61774.03;5032259;28;20517;-66
2021/03/09 01:44:32;;;;;;;23.30;11.02;;;;;;;-139.48;100.00;61774.03;5017541;28;20156;-66
2021/03/09 01:47:17;;;;;;;22.13;10.90;;;;;;;-139.48;100.00;61774.03;5003695;28;20125;-66
2021/03/09 01:50:01;;;;;;;20.80;10.32;;;;;;;-139.48;100.00;61774.03;5032307;28;20044;-66
2021/03/09 01:52:48;;;;;;;18.98;11.23;;;;;;;-139.48;100.00;61774.03;5017180;28;20473;-66
2021/03/09 01:55:33;;;;;;;18.80;11.07;;;;;;;-139.48;100.00;61774.03;5017766;28;20134;-66
2021/03/09 01:58:19;;;;;;;18.98;11.05;;;;;;;-139.48;100.00;61774.03;5017267;28;20513;-66
2021/03/09 02:01:04;;;;;;;18.98;10.93;;;;;;;-139.48;100.00;61774.03;5032003;28;20044;-66
2021/03/09 02:03:48;;;;;;;18.90;11.48;;;;;;;-139.48;100.00;61774.03;5035553;28;20044;-66
2021/03/09 02:06:36;;;;;;;18.60;10.18;;;;;;;-139.48;100.00;61774.03;5036142;28;20044;-66
2021/03/09 02:09:22;;;;;;;19.65;10.55;;;;;;;-139.48;100.00;61774.03;5036204;28;20044;-67
2021/03/09 02:12:22;;;;;;;24.55;10.82;;;;;;;-139.48;100.00;61774.03;5036027;28;20111;-64
2021/03/09 02:15:28;;;;;;;22.25;11.93;;;;;;;-139.48;100.00;61774.03;5020853;28;20072;-65
2021/03/09 02:18:40;;;;;;;20.77;10.80;;;;;;;-139.48;100.00;61774.03;5020693;28;20080;-67
2021/03/09 02:21:52;;;;;;;21.10;11.82;;;;;;;-139.48;100.00;61774.03;5020592;28;20044;-67
2021/03/09 02:25:03;;;;;;;21.13;11.35;;;;;;;-139.48;100.00;61774.03;5035635;28;20048;-66
2021/03/09 02:28:06;;;;;;;19.05;10.73;;;;;;;-139.48;100.00;61774.03;5020476;28;20088;-67
2021/03/09 02:30:52;;;;;;;22.98;12.20;;;;;;;-139.48;100.00;61774.03;5035435;28;20048;-66
2021/03/09 02:33:39;;;;;;;19.60;11.68;;;;;;;-139.48;100.00;61774.03;5035348;28;20438;-66
2021/03/09 02:36:25;;;;;;;21.95;11.50;;;;;;;-139.48;100.00;61774.03;5020180;28;20044;-66
2021/03/09 02:39:12;;;;;;;26.27;13.45;;;;;;;-139.48;100.00;61774.03;5020438;28;20103;-66
2021/03/09 02:42:00;;;;;;;21.13;12.55;;;;;;;-139.48;100.00;61774.03;5035179;28;20111;-66
2021/03/09 02:44:44;;;;;;;24.45;13.00;;;;;;;-139.48;100.00;61774.03;5020172;28;20060;-66
2021/03/09 02:47:30;;;;;;;29.33;13.00;;;;;;;-139.48;100.00;61774.03;5035242;28;20088;-66
2021/03/09 02:50:20;;;;;;;24.13;13.05;;;;;;;-139.48;100.00;61774.03;5034796;28;20044;-67
2021/03/09 02:53:11;;;;;;;24.88;13.38;;;;;;;-139.48;100.00;61774.03;5021675;28;20479;-66
2021/03/09 02:55:56;;;;;;;28.40;13.77;;;;;;;-139.48;100.00;61774.03;5020037;28;20049;-66
2021/03/09 02:58:44;;;;;;;23.25;13.20;;;;;;;-139.48;100.00;61774.03;5035068;28;20548;-66
2021/03/09 03:01:29;;;;;;;26.88;13.25;;;;;;;-139.48;100.00;61774.03;5020219;28;20402;-66
2021/03/09 03:04:16;;;;;;;25.10;13.70;;;;;;;-139.48;100.00;61774.03;5019665;28;20480;-66
2021/03/09 03:07:01;;;;;;;22.77;13.20;;;;;;;-139.48;100.00;61774.03;5019823;28;20056;-65
2021/03/09 03:09:46;;;;;;;23.25;13.18;;;;;;;-139.48;100.00;61774.03;5034658;28;20133;-66
2021/03/09 03:12:34;;;;;;;23.85;12.95;;;;;;;-139.48;100.00;61774.03;5034663;28;20119;-66
2021/03/09 03:15:20;;;;;;;26.55;13.35;;;;;;;-139.48;100.00;61774.03;5034803;28;20570;-65
2021/03/09 03:18:06;;;;;;;27.40;13.77;;;;;;;-139.48;100.00;61774.03;5034508;28;20071;-66
2021/03/09 03:20:51;;;;;;;24.50;12.57;;;;;;;-139.48;100.00;61774.03;5019557;28;20068;-67
2021/03/09 03:23:36;;;;;;;24.65;13.30;;;;;;;-139.48;100.00;61774.03;5034563;28;20057;-66
2021/03/09 03:26:21;;;;;;;26.80;13.43;;;;;;;-139.48;100.00;61774.03;5034517;28;20056;-66
2021/03/09 03:29:08;;;;;;;28.75;13.77;;;;;;;-139.48;100.00;61774.03;5034455;28;20470;-66
2021/03/09 03:31:52;;;;;;;24.13;12.38;;;;;;;-139.48;100.00;61774.03;5034368;28;20059;-66
2021/03/09 03:34:36;;;;;;;24.70;13.27;;;;;;;-139.48;100.00;61774.03;5034463;28;20044;-66
2021/03/09 03:37:21;;;;;;;27.27;13.68;;;;;;;-139.48;100.00;61774.03;5034126;28;20083;-66
2021/03/09 03:40:10;;;;;;;22.17;13.18;;;;;;;-139.48;100.00;61774.03;5019247;28;20113;-66
2021/03/09 03:42:54;;;;;;;24.30;12.65;;;;;;;-139.48;100.00;61774.03;5033731;28;20133;-63
2021/03/09 03:45:38;;;;;;;26.77;14.35;;;;;;;-139.48;100.00;61774.03;5019103;28;20120;-67
2021/03/09 03:48:24;;;;;;;21.48;12.68;;;;;;;-139.48;100.00;61774.03;5034191;28;20415;-66
2021/03/09 03:51:11;;;;;;;25.02;13.68;;;;;;;-139.48;100.00;61774.03;5018682;28;20418;-65
2021/03/09 03:54:21;;;;;;;25.02;12.57;;;;;;;-139.48;100.00;61774.03;5018708;28;20049;-66
2021/03/09 03:57:13;;;;;;;25.65;12.40;;;;;;;-139.48;100.00;61774.03;5018873;28;20091;-65
2021/03/09 04:00:00;;;;;;;28.50;12.95;;;;;;;-139.48;100.00;61774.03;5018914;28;20095;-66
2021/03/09 04:02:45;;;;;;;25.25;13.75;;;;;;;-139.48;100.00;61774.03;5018876;28;20043;-66
2021/03/09 04:05:30;;;;;;;26.15;13.82;;;;;;;-139.48;100.00;61774.03;5018681;28;20053;-66
2021/03/09 04:08:15;;;;;;;23.25;12.80;;;;;;;-139.48;100.00;61774.03;5004796;28;20513;-66
2021/03/09 04:11:01;;;;;;;27.98;13.20;;;;;;;-139.48;100.00;61774.03;5018526;28;20051;-66
2021/03/09 04:13:45;;;;;;;25.63;13.50;;;;;;;-139.48;100.00;61774.03;5033563;28;20482;-67
2021/03/09 04:16:31;;;;;;;26.10;13.20;;;;;;;-139.48;100.00;61774.03;5033539;28;20471;-66
2021/03/09 04:19:16;;;;;;;26.15;13.57;;;;;;;-139.48;100.00;61774.03;5033267;28;20103;-64
2021/03/09 04:22:01;;;;;;;32.33;14.35;;;;;;;-139.48;100.00;61774.03;5018262;28;20051;-66
2021/03/09 04:24:46;;;;;;;26.90;13.93;;;;;;;-139.48;100.00;61774.03;5004076;28;20049;-66
2021/03/09 04:27:31;;;;;;;26.02;13.52;;;;;;;-139.48;100.00;61774.03;5033363;28;20056;-66
2021/03/09 04:30:16;;;;;;;27.77;14.80;;;;;;;-139.48;100.00;61774.03;5004119;28;20044;-67
2021/03/09 04:33:00;;;;;;;32.47;15.43;;;;;;;-139.48;100.00;61774.03;5033358;28;20153;-67
2021/03/09 04:35:45;;;;;;;33.60;16.77;;;;;;;-139.48;100.00;61774.03;5033128;28;20048;-66
2021/03/09 04:38:29;;;;;;;31.98;16.27;;;;;;;-139.48;100.00;61774.03;5033333;28;20119;-67
2021/03/09 04:41:15;;;;;;;33.10;17.02;;;;;;;-139.48;100.00;61774.03;5032830;28;20192;-66
2021/03/09 04:43:59;;;;;;;31.80;16.48;;;;;;;-139.48;100.00;61774.03;5017689;28;20068;-66
2021/03/09 04:46:43;;;;;;;29.60;15.98;;;;;;;-139.48;100.00;61774.03;5033251;28;20060;-67
2021/03/09 04:49:28;;;;;;;29.00;16.73;;;;;;;-139.48;100.00;61774.03;5032771;28;20096;-65
2021/03/09 04:52:13;;;;;;;32.17;15.30;;;;;;;-139.48;100.00;61774.03;5017572;28;20048;-66
2021/03/09 04:54:57;;;;;;;29.85;16.17;;;;;;;-139.48;100.00;61774.03;5033175;28;20114;-67
2021/03/09 04:57:42;;;;;;;37.10;16.55;;;;;;;-139.48;100.00;61774.03;5017770;28;20275;-67
2021/03/09 05:00:28;;;;;;;32.72;16.77;;;;;;;-139.48;100.00;61774.03;5032814;28;20048;-66
2021/03/09 05:03:11;;;;;;;31.27;17.17;;;;;;;-139.48;100.00;61774.03;5017472;28;20133;-67
2021/03/09 05:05:55;;;;;;;30.98;17.08;;;;;;;-139.48;100.00;61774.03;5017868;28;20464;-67
2021/03/09 05:08:39;;;;;;;31.02;17.00;;;;;;;-139.48;100.00;61774.03;5032803;28;20127;-65
2021/03/09 05:11:23;;;;;;;34.60;16.98;;;;;;;-139.48;100.00;61774.03;5017771;28;20052;-67
2021/03/09 05:14:07;;;;;;;30.83;16.83;;;;;;;-139.48;100.00;61774.03;5032553;28;20057;-67
2021/03/09 05:16:51;;;;;;;32.10;16.95;;;;;;;-139.48;100.00;61774.03;5032620;28;20083;-67
2021/03/09 05:19:35;;;;;;;34.65;18.50;;;;;;;-139.48;100.00;61774.03;5017717;28;20052;-66
2021/03/09 05:22:19;;;;;;;;;;;;;;;-139.48;100.00;61774.03;5032837;28;20043;-64
2021/03/09 05:25:11;;;;;;;31.10;16.75;;;;;;;-139.48;100.00;61774.03;5032562;28;19979;-65
2021/03/09 05:27:55;;;;;;;37.30;17.08;;;;;;;-139.48;100.00;61774.03;5032426;28;20190;-66
2021/03/09 05:30:40;;;;;;;34.42;16.40;;;;;;;-139.48;100.00;61774.03;5032245;28;20180;-66
2021/03/09 05:33:24;;;;;;;31.90;17.05;;;;;;;-139.48;100.00;61774.03;5032619;28;20143;-65
2021/03/09 05:36:08;;;;;;;33.53;16.38;;;;;;;-139.48;100.00;61774.03;5032514;28;20043;-66
2021/03/09 05:38:52;;;;;;;38.85;16.85;;;;;;;-139.48;100.00;61774.03;5035725;28;20120;-67
2021/03/09 05:41:37;;;;;;;28.00;16.08;;;;;;;-139.48;100.00;61774.03;5036364;28;20473;-65
2021/03/09 05:44:22;;;;;;;34.15;16.20;;;;;;;-139.48;100.00;61774.03;5021202;28;20048;-64
2021/03/09 05:47:06;;;;;;;34.78;16.25;;;;;;;-139.48;100.00;61774.03;5036093;28;20083;-66
2021/03/09 05:49:50;;;;;;;32.67;16.10;;;;;;;-139.48;100.00;61774.03;5021227;28;20114;-66
2021/03/09 05:52:36;;;;;;;31.42;16.60;;;;;;;-139.48;100.00;61774.03;5021100;28;20075;-66
2021/03/09 05:55:20;;;;;;;31.15;18.00;;;;;;;-139.48;100.00;61774.03;5035904;28;20176;-66
2021/03/09 05:58:04;;;;;;;29.95;15.75;;;;;;;-139.48;100.00;61774.03;5021055;28;20047;-66
2021/03/09 06:00:49;;;;;;;32.20;17.13;;;;;;;-139.48;100.00;61774.03;5020920;28;20052;-67
2021/03/09 06:03:33;;;;;;;32.88;16.95;;;;;;;-139.48;100.00;61774.03;5035858;28;20052;-67
2021/03/09 06:06:17;;;;;;;31.08;15.85;;;;;;;-139.48;100.00;61774.03;5035838;28;20048;-66
2021/03/09 06:09:02;;;;;;;29.00;15.70;;;;;;;-139.48;100.00;61774.03;5035703;28;20106;-67
2021/03/09 06:12:09;;;;;;;30.77;16.17;;;;;;;-139.48;100.00;61774.03;5020673;28;20080;-66
2021/03/09 06:14:56;;;;;;;28.95;16.20;;;;;;;-139.48;100.00;61774.03;5035843;28;20036;-66
2021/03/09 06:17:43;;;;;;;33.53;16.88;;;;;;;-139.48;100.00;61774.03;5035786;28;20593;-65
2021/03/09 06:20:28;;;;;;;32.67;17.50;;;;;;;-139.48;100.00;61774.03;5006948;28;20044;-67
2021/03/09 06:23:25;;;;;;;33.85;16.75;;;;;;;-139.48;100.00;61774.03;5020480;28;20064;-66
2021/03/09 06:26:38;;;;;;;31.08;16.52;;;;;;;-139.48;100.00;61774.03;5020589;28;20115;-67
2021/03/09 06:29:22;;;;;;;33.42;17.25;;;;;;;-139.48;100.00;61774.03;5035629;28;20135;-66
2021/03/09 06:32:07;;;;;;;32.70;17.13;;;;;;;-139.48;100.00;61774.03;5035465;28;20056;-66
2021/03/09 06:34:55;;;;;;;29.13;16.38;;;;;;;-139.48;100.00;61774.03;5035482;28;20052;-66
2021/03/09 06:37:39;;;;;;;35.25;17.35;;;;;;;-139.48;100.00;61774.03;5020425;28;20044;-66
2021/03/09 06:40:23;;;;;;;32.03;15.40;;;;;;;-139.48;100.00;61774.03;5035179;28;20080;-66
2021/03/09 06:43:15;;;;;;;27.65;16.02;;;;;;;-139.48;100.00;61774.03;5035094;28;20052;-66
2021/03/09 06:46:13;;;;;;;33.70;16.92;;;;;;;-139.48;100.00;61774.03;5020197;28;20041;-67
2021/03/09 06:49:02;;;;;;;29.77;15.80;;;;;;;-139.48;100.00;61774.03;5019639;28;20095;-66
2021/03/09 06:51:45;;;;;;;31.52;16.20;;;;;;;-139.48;100.00;61774.03;5019787;28;20052;-66
2021/03/09 06:54:41;;;;;;;26.90;16.02;;;;;;;-139.48;100.00;61774.03;5006120;28;20094;-65
2021/03/09 06:57:25;;;;;;;26.27;14.90;;;;;;;-139.48;100.00;61774.03;5020123;28;20079;-66
2021/03/09 07:00:11;;;;;;;29.25;15.57;;;;;;;-139.48;100.00;61774.03;5019683;28;20087;-67
2021/03/09 07:02:55;;;;;;;30.23;16.05;;;;;;;-139.48;100.00;61774.03;5034984;28;20056;-64
2021/03/09 07:05:59;;;;;;;29.75;15.93;;;;;;;-139.48;100.00;61774.03;5019610;28;20055;-65
2021/03/09 07:08:43;;;;;;;32.40;16.30;;;;;;;-139.48;100.00;61774.03;5019887;28;20043;-65
2021/03/09 07:11:27;;;;;;;28.48;16.58;;;;;;;-139.48;100.00;61774.03;5019605;28;20078;-65
2021/03/09 07:14:13;;;;;;;27.02;16.35;;;;;;;-139.48;100.00;61774.03;5019592;28;20053;-66
2021/03/09 07:17:00;;;;;;;26.63;16.23;;;;;;;-139.48;100.00;61774.03;5034498;28;20559;-66
2021/03/09 07:19:44;;;;;;;31.50;16.17;;;;;;;-139.48;100.00;61774.03;5019433;28;20088;-66
2021/03/09 07:22:29;;;;;;;27.60;15.80;;;;;;;-139.48;100.00;61774.03;5019382;28;20152;-67
2021/03/09 07:25:17;;;;;;;32.65;16.85;;;;;;;-139.48;100.00;61774.03;5034440;28;20051;-64
2021/03/09 07:28:02;;;;;;;24.60;14.65;;;;;;;-139.48;100.00;61774.03;5019184;28;20123;-67
2021/03/09 07:30:50;;;;;;;31.85;16.35;;;;;;;-139.48;100.00;61774.03;5019240;28;20068;-66
2021/03/09 07:33:34;;;;;;;27.63;16.50;;;;;;;-139.48;100.00;61774.03;5019166;28;20199;-66
2021/03/09 07:36:20;;;;;;;27.05;15.70;;;;;;;-139.48;100.00;61774.03;5019335;28;20414;-65
2021/03/09 07:39:04;;;;;;;29.85;16.50;;;;;;;-139.48;100.00;61774.03;5033978;28;20100;-66
2021/03/09 07:41:50;;;;;;;36.60;18.80;;;;;;;-139.48;100.00;61774.03;5018879;28;20413;-65
2021/03/09 07:44:37;;;;;;;29.38;16.20;;;;;;;-139.48;100.00;61774.03;5018934;28;20142;-63
2021/03/09 07:47:21;;;;;;;31.08;15.80;;;;;;;-139.48;100.00;61774.03;5019142;28;20056;-67
2021/03/09 07:50:06;;;;;;;31.02;16.33;;;;;;;-139.48;100.00;61774.03;5018781;28;20052;-66
2021/03/09 07:52:59;;;;;;;29.50;16.25;;;;;;;-139.48;100.00;61774.03;5018647;28;20043;-66
2021/03/09 07:55:43;;;;;;;25.38;15.38;;;;;;;-139.48;100.00;61774.03;5034346;28;20116;-64
2021/03/09 07:58:27;;;;;;;26.35;15.13;;;;;;;-139.48;100.00;61774.03;5018904;28;20103;-66
2021/03/09 08:01:11;;;;;;;26.85;15.57;;;;;;;-139.48;100.00;61774.03;5018053;28;20046;-66
2021/03/09 08:04:06;;;;;;;27.58;15.13;;;;;;;-139.48;100.00;61774.03;5033918;28;20052;-66
2021/03/09 08:06:50;;;;;;;31.42;16.50;;;;;;;-139.48;100.00;61774.03;5018951;28;20106;-67
2021/03/09 08:09:35;;;;;;;26.17;16.02;;;;;;;-139.48;100.00;61774.03;5018457;28;20056;-67
2021/03/09 08:12:24;;;;;;;31.25;17.42;;;;;;;-139.48;100.00;61774.03;5018702;28;20085;-67
2021/03/09 08:15:26;;;;;;;28.45;16.52;;;;;;;-139.48;100.00;61774.03;5033400;28;20095;-67
2021/03/09 08:18:22;;;;;;;26.13;15.57;;;;;;;-139.48;100.00;61774.03;5033729;28;20048;-65
2021/03/09 08:21:06;;;;;;;25.45;15.13;;;;;;;-139.48;100.00;61774.03;5033691;28;20053;-66
2021/03/09 08:23:54;;;;;;;27.60;15.65;;;;;;;-139.48;100.00;61774.03;5018715;28;20055;-66
2021/03/09 08:26:37;;;;;;;28.55;17.27;;;;;;;-139.48;100.00;61774.03;5034009;28;20194;-66
2021/03/09 08:29:27;;;;;;;27.73;16.70;;;;;;;-139.48;100.00;61774.03;5033184;28;20052;-65
2021/03/09 08:32:24;;;;;;;27.02;16.55;;;;;;;-139.48;100.00;61774.03;5032991;28;20567;-65
2021/03/09 08:35:11;;;;;;;25.92;16.13;;;;;;;-139.48;100.00;61774.03;5033671;28;20143;-64
2021/03/09 08:38:10;;;;;;;26.35;15.73;;;;;;;-139.48;100.00;61774.03;5033859;28;20110;-67
2021/03/09 08:41:21;;;;;;;34.00;19.30;;;;;;;-139.48;100.00;61774.03;5018036;28;20048;-66
2021/03/09 08:47:06;;;;;;;29.80;19.08;;;;;;;-139.48;100.00;61774.03;5033537;28;20438;-66
2021/03/09 08:49:51;;;;;;;34.55;19.50;;;;;;;-139.48;100.00;61774.03;5033189;28;20049;-64
2021/03/09 08:52:40;;;;;;;30.17;18.02;;;;;;;-139.48;100.00;61774.03;5034927;22;20470;-64
2021/03/09 08:55:24;;;;;;;35.53;20.92;;;;;;;-139.48;100.00;61774.03;5012828;28;20132;-63
2021/03/09 08:58:08;;;;;;;26.13;15.63;;;;;;;-139.48;100.00;61774.03;5013285;28;20120;-63
2021/03/09 09:00:53;;;;;;;27.15;16.00;;;;;;;-139.48;100.00;61774.03;5011773;28;20057;-62
2021/03/09 09:03:38;;;;;;;34.08;19.40;;;;;;;-139.48;100.00;61774.03;4992203;28;20466;-62
2021/03/09 09:06:26;;;;;;;23.17;15.20;;;;;;;-139.48;100.00;61774.03;4992361;28;20484;-64
2021/03/09 09:09:10;;;;;;;27.70;17.40;;;;;;;-139.48;100.00;61774.03;4993224;28;20069;-62
2021/03/09 09:11:55;;;;;;;25.08;15.00;;;;;;;-139.48;100.00;61774.03;4993136;28;20049;-64
2021/03/09 09:14:39;;;;;;;24.90;16.23;;;;;;;-139.48;100.00;61774.03;4993180;28;20368;-64
2021/03/09 09:17:26;;;;;;;26.90;16.35;;;;;;;-139.48;100.00;61774.03;4992388;28;20136;-61
2021/03/09 09:20:22;;;;;;;26.63;15.95;;;;;;;-139.48;100.00;61774.03;4992999;28;20049;-63
2021/03/09 09:23:09;;;;;;;31.30;16.50;;;;;;;-139.48;100.00;61774.03;4993042;28;20053;-64
2021/03/09 09:25:58;;;;;;;25.15;15.88;;;;;;;-139.48;100.00;61774.03;4993108;28;20061;-64
2021/03/09 09:28:42;;;;;;;27.88;16.00;;;;;;;-139.48;100.00;61774.03;4992189;28;20191;-64
2021/03/09 09:31:26;;;;;;;;;;;;;;;-139.48;100.00;61774.03;4993312;28;20100;-65
2021/03/09 09:34:10;;;;;;;23.17;15.33;;;;;;;-139.48;100.00;61774.03;4991904;28;19941;-64
2021/03/09 09:36:55;;;;;;;27.00;15.48;;;;;;;-139.48;100.00;61774.03;4993145;28;20053;-65
2021/03/09 09:39:39;;;;;;;24.75;15.27;;;;;;;-139.48;100.00;61774.03;4993072;28;20060;-64
2021/03/09 09:42:23;;;;;;;;;;;;;;;-139.48;100.00;61774.03;4992080;28;20561;-63
2021/03/09 09:45:08;;;;;;;21.73;15.20;;;;;;;-139.48;100.00;61774.03;4991749;28;19972;-64
2021/03/09 09:47:52;;;;;;;30.75;16.83;;;;;;;-139.48;100.00;61774.03;4992967;28;20089;-64
2021/03/09 09:50:41;;;;;;;29.95;16.83;;;;;;;-139.48;100.00;61774.03;4991909;28;20097;-64
2021/03/09 09:53:40;;;;;;;22.48;15.30;;;;;;;-139.48;100.00;61774.03;4991568;28;20049;-64
2021/03/09 09:56:25;;;;;;;23.63;15.80;;;;;;;-139.48;100.00;61774.03;4992577;28;20092;-64
2021/03/09 09:59:24;;;;;;;57.72;32.15;;;;;;;-139.48;100.00;61774.03;4991814;28;20049;-62
2021/03/09 10:02:16;;;;;;;29.30;17.92;;;;;;;-139.48;100.00;61774.03;4991531;28;20081;-63
2021/03/09 10:05:01;;;;;;;28.50;18.67;;;;;;;-139.48;100.00;61774.03;4992773;28;20120;-64
2021/03/09 10:07:45;;;;;;;24.25;17.15;;;;;;;-139.48;100.00;61774.03;4991407;28;20124;-65
2021/03/09 10:10:29;;;;;;;;;;;;;;;-139.48;100.00;61774.03;4993042;28;20165;-65
2021/03/09 10:13:20;;;;;;;28.10;19.30;;;;;;;-139.48;100.00;61774.03;4991510;28;20401;-63
2021/03/09 10:16:05;;;;;;;24.63;17.17;;;;;;;-139.48;100.00;61774.03;4991340;28;20518;-64
2021/03/09 10:18:50;;;;;;;22.00;16.38;;;;;;;-139.48;100.00;61774.03;4992503;28;20068;-64
2021/03/09 10:21:36;;;;;;;24.10;16.20;;;;;;;-139.48;100.00;61774.03;4991505;28;20045;-63
2021/03/09 10:24:31;;;;;;;21.00;15.05;;;;;;;-139.48;100.00;61774.03;4993591;28;20057;-64
2021/03/09 10:27:20;;;;;;;22.35;15.95;;;;;;;-139.48;100.00;61774.03;4996087;28;20530;-64
2021/03/09 10:30:05;;;;;;;21.88;15.38;;;;;;;-139.48;100.00;61774.03;4996310;28;20045;-64
2021/03/09 10:32:52;;;;;;;32.80;22.27;;;;;;;-139.48;100.00;61774.03;4996051;28;20053;-64
2021/03/09 10:36:02;;;;;;;26.33;17.50;;;;;;;-139.48;100.00;61774.03;4995949;28;20096;-65
2021/03/09 10:38:46;;;;;;;28.25;17.63;;;;;;;-139.48;100.00;61774.03;4981050;28;20121;-65
2021/03/09 10:41:30;;;;;;;;;;;;;;;-139.48;100.00;61774.03;4996263;28;20128;-64
2021/03/09 10:44:35;;;;;;;29.23;21.08;;;;;;;-139.48;100.00;61774.03;4995693;28;19925;-64
2021/03/09 10:47:19;;;;;;;22.00;14.48;;;;;;;-139.48;100.00;61774.03;4994811;28;20052;-64
2021/03/09 10:50:04;;;;;;;19.27;13.25;;;;;;;-139.48;100.00;61774.03;4995777;28;20053;-63
2021/03/09 10:52:48;;;;;;;18.90;14.23;;;;;;;-139.48;100.00;61774.03;4994391;28;20056;-63
2021/03/09 10:55:32;;;;;;;18.63;13.77;;;;;;;-139.48;100.00;61774.03;4994641;28;20167;-64
2021/03/09 10:58:16;;;;;;;19.30;13.60;;;;;;;-139.48;100.00;61774.03;4995550;28;20466;-64
2021/03/09 11:01:00;;;;;;;19.60;14.68;;;;;;;-139.48;100.00;61774.03;4994724;28;20049;-64
2021/03/09 11:03:44;;;;;;;17.27;13.32;;;;;;;-139.48;100.00;61774.03;4995496;28;20411;-64
2021/03/09 11:06:28;;;;;;;18.65;13.23;;;;;;;-139.48;100.00;61774.03;4995757;28;20053;-64
2021/03/09 11:09:13;;;;;;;18.13;13.88;;;;;;;-139.48;100.00;61774.03;4995324;28;20056;-64
2021/03/09 11:11:57;;;;;;;24.13;18.55;;;;;;;-139.48;100.00;61774.03;4995131;28;20072;-64
2021/03/09 11:14:41;;;;;;;19.33;14.25;;;;;;;-139.48;100.00;61774.03;4980367;28;20116;-64
2021/03/09 11:17:24;;;;;;;17.35;13.13;;;;;;;-139.48;100.00;61774.03;4994101;28;20527;-63
2021/03/09 11:20:09;;;;;;;16.95;13.77;;;;;;;-139.48;100.00;61774.03;4994274;28;20165;-65
2021/03/09 11:22:52;;;;;;;19.73;14.65;;;;;;;-139.48;100.00;61774.03;4993914;28;20116;-64
2021/03/09 11:25:37;;;;;;;27.23;15.23;;;;;;;-139.48;100.00;61774.03;4994109;28;20510;-64
2021/03/09 11:28:21;;;;;;;20.08;13.70;;;;;;;-139.48;100.00;61774.03;4994885;28;20124;-63
2021/03/09 11:31:05;;;;;;;21.85;14.90;;;;;;;-139.48;100.00;61774.03;4993958;28;20157;-65
2021/03/09 11:33:49;;;;;;;18.95;13.82;;;;;;;-139.48;100.00;61774.03;4993647;28;20112;-64
2021/03/09 11:36:34;;;;;;;20.95;16.60;;;;;;;-139.48;100.00;61774.03;4994876;28;20518;-64
2021/03/09 11:39:18;;;;;;;14.70;13.10;;;;;;;-139.48;100.00;61774.03;4994922;28;20049;-65
2021/03/09 11:42:03;;;;;;;14.93;12.25;;;;;;;-139.48;100.00;61774.03;4994649;28;20045;-64
2021/03/09 11:44:47;;;;;;;19.38;13.32;;;;;;;-139.48;100.00;61774.03;4993522;28;20156;-65
2021/03/09 11:47:30;;;;;;;;;;;;;;;-139.48;100.00;61774.03;4995157;28;20549;-65
2021/03/09 11:50:15;;;;;;;14.50;12.13;;;;;;;-139.48;100.00;61774.03;4980222;28;20294;-65
2021/03/09 11:52:59;;;;;;;17.23;13.38;;;;;;;-139.48;100.00;61774.03;4994382;28;20104;-65
2021/03/09 11:55:45;;;;;;;16.30;13.13;;;;;;;-139.48;100.00;61774.03;4994314;28;20049;-64
2021/03/09 11:58:29;;;;;;;21.25;17.20;;;;;;;-139.48;100.00;61774.03;4994555;28;20045;-64
2021/03/09 12:01:14;;;;;;;25.08;18.48;;;;;;;-139.48;100.00;61774.03;4994153;28;20053;-65
2021/03/09 12:03:58;;;;;;;32.53;23.27;;;;;;;-139.48;100.00;61774.03;4993355;28;20108;-65
2021/03/09 12:06:43;;;;;;;22.85;18.80;;;;;;;-139.48;100.00;61774.03;4994404;28;20053;-65
2021/03/09 12:09:27;;;;;;;23.95;17.65;;;;;;;-139.48;100.00;61774.03;4979370;28;20053;-65
2021/03/09 12:12:11;;;;;;;16.77;14.32;;;;;;;-139.48;100.00;61774.03;4993287;28;20085;-64
2021/03/09 12:14:55;;;;;;;18.83;14.88;;;;;;;-139.48;100.00;61774.03;4993211;28;20042;-65
2021/03/09 12:17:40;;;;;;;30.02;19.25;;;;;;;-139.48;100.00;61774.03;4994131;28;20053;-65
2021/03/09 12:20:24;;;;;;;19.55;14.68;;;;;;;-139.48;100.00;61774.03;4994210;28;20053;-64
2021/03/09 12:23:09;;;;;;;16.83;14.52;;;;;;;-139.48;100.00;61774.03;4994050;28;20071;-65
2021/03/09 12:25:53;;;;;;;39.95;35.90;;;;;;;-139.48;100.00;61774.03;4992921;28;20049;-65